Time;durP1;ratioP1;P1;durP2;ratioP2;P2;SDS_P1;SDS_P2;PMS_P1;PMS_P2;Temp;Humidity;BMP_temperature;BMP_pressure;BME280_temperature;BME280_humidity;BME280_pressure;Samples;Min_cycle;Max_cycle;Signal;HPM_P1;HPM_P2
2022/05/10 00:01:54;;;;;;;9.25;8.45;;;18.90;70.70;;;;;;5089014;28;20206;-86
2022/05/10 00:04:19;;;;;;;9.25;8.50;;;19.00;70.30;;;;;;5083659;28;20187;-86
2022/05/10 00:06:48;;;;;;;8.05;7.45;;;19.10;69.90;;;;;;5083531;28;20733;-86
2022/05/10 00:09:16;;;;;;;10.07;9.25;;;19.10;69.20;;;;;;5088747;28;20539;-86
2022/05/10 00:11:42;;;;;;;9.55;8.60;;;19.20;68.70;;;;;;5088261;28;20191;-86
2022/05/10 00:14:08;;;;;;;10.27;9.20;;;19.20;69.20;;;;;;5089798;28;20195;-86
2022/05/10 00:16:38;;;;;;;8.98;8.13;;;19.20;68.60;;;;;;5085354;28;20217;-86
2022/05/10 00:19:04;;;;;;;9.63;8.82;;;19.20;68.00;;;;;;5081613;28;20207;-86
2022/05/10 00:21:30;;;;;;;9.90;9.02;;;19.00;69.30;;;;;;5081533;28;20247;-86
2022/05/10 00:23:55;;;;;;;9.27;8.48;;;18.80;70.20;;;;;;5085140;28;20207;-85
2022/05/10 00:26:21;;;;;;;9.45;8.68;;;18.90;70.90;;;;;;5090037;28;20234;-86
2022/05/10 00:28:47;;;;;;;9.57;8.88;;;18.90;69.60;;;;;;5099521;28;20190;-86
2022/05/10 00:31:14;;;;;;;10.07;9.30;;;18.90;69.90;;;;;;5109056;28;20179;-87
2022/05/10 00:33:40;;;;;;;8.93;8.23;;;18.90;70.40;;;;;;5111126;28;20205;-86
2022/05/10 00:36:09;;;;;;;9.63;8.68;;;18.90;70.50;;;;;;5106887;28;20195;-86
2022/05/10 00:38:38;;;;;;;9.40;8.57;;;19.00;70.10;;;;;;5090707;28;20267;-86
2022/05/10 00:41:25;;;;;;;9.50;8.80;;;18.80;70.10;;;;;;5074244;28;20212;-86
2022/05/10 00:43:59;;;;;;;9.00;8.25;;;18.90;70.10;;;;;;5085092;28;20200;-86
2022/05/10 00:46:38;;;;;;;8.40;7.80;;;18.80;69.70;;;;;;5091831;28;20194;-86
2022/05/10 00:49:12;;;;;;;9.13;8.13;;;18.90;69.90;;;;;;5087447;28;20550;-86
2022/05/10 00:51:57;;;;;;;9.30;8.50;;;18.90;69.70;;;;;;5084471;28;20190;-86
2022/05/10 00:54:25;;;;;;;8.90;8.20;;;18.70;70.40;;;;;;5068789;28;20260;-86
2022/05/10 00:57:09;;;;;;;9.48;8.65;;;18.70;70.70;;;;;;5082267;28;20198;-86
2022/05/10 00:59:47;;;;;;;8.32;7.72;;;18.80;70.00;;;;;;5084322;28;20581;-86
2022/05/10 01:02:39;;;;;;;11.20;9.20;;;18.70;69.90;;;;;;5081498;28;20221;-85
2022/05/10 01:05:16;;;;;;;9.20;8.50;;;18.70;69.80;;;;;;5085923;28;20207;-85
2022/05/10 01:07:54;;;;;;;8.73;8.02;;;18.70;69.90;;;;;;5089569;28;20576;-86
2022/05/10 01:10:55;;;;;;;9.43;8.48;;;18.80;69.80;;;;;;5082934;28;20175;-86
2022/05/10 01:13:31;;;;;;;9.55;8.75;;;18.50;70.00;;;;;;5080153;28;20234;-85
2022/05/10 01:16:01;;;;;;;9.45;8.70;;;18.50;70.70;;;;;;5082671;28;20273;-86
2022/05/10 01:18:26;;;;;;;8.93;8.18;;;18.50;70.90;;;;;;5078396;28;20683;-86
2022/05/10 01:20:56;;;;;;;9.38;8.60;;;18.40;70.80;;;;;;5080200;28;20202;-86
2022/05/10 01:23:33;;;;;;;9.48;8.77;;;18.30;73.00;;;;;;5078064;28;20278;-87
2022/05/10 01:26:15;;;;;;;8.85;8.15;;;18.30;72.20;;;;;;5080724;28;20201;-86
2022/05/10 01:29:00;;;;;;;9.40;8.70;;;18.20;71.90;;;;;;5085075;28;20216;-86
2022/05/10 01:31:40;;;;;;;10.00;9.10;;;18.00;72.10;;;;;;5088152;28;20198;-86
2022/05/10 01:34:11;;;;;;;9.45;8.65;;;17.90;73.50;;;;;;5091815;28;20182;-86
2022/05/10 01:36:56;;;;;;;9.68;8.88;;;17.90;73.30;;;;;;5085224;28;20741;-87
2022/05/10 01:39:41;;;;;;;8.95;8.30;;;17.90;72.60;;;;;;5080074;28;20237;-86
2022/05/10 01:42:07;;;;;;;8.93;8.32;;;17.80;73.10;;;;;;5089197;28;20210;-86
2022/05/10 01:44:56;;;;;;;9.30;8.60;;;17.90;73.40;;;;;;5086998;28;20178;-86
2022/05/10 01:47:48;;;;;;;9.23;8.43;;;17.90;73.00;;;;;;5092041;28;20190;-86
2022/05/10 01:50:25;;;;;;;9.23;8.43;;;18.10;72.30;;;;;;5093883;28;20196;-86
2022/05/10 01:53:09;;;;;;;9.30;8.63;;;18.20;71.80;;;;;;5115748;28;20205;-86
2022/05/10 01:55:48;;;;;;;9.48;8.80;;;18.20;72.20;;;;;;5111050;28;20206;-86
2022/05/10 01:58:25;;;;;;;9.30;8.60;;;18.10;72.20;;;;;;5099882;28;20185;-86
2022/05/10 02:01:10;;;;;;;8.60;8.00;;;18.00;72.80;;;;;;5092060;28;20237;-86
2022/05/10 02:04:17;;;;;;;8.88;8.15;;;17.90;72.10;;;;;;5083949;28;20236;-86
2022/05/10 02:07:09;;;;;;;8.35;7.75;;;17.80;72.70;;;;;;5044745;28;20209;-86
2022/05/10 02:09:46;;;;;;;9.68;8.77;;;17.70;73.20;;;;;;5077784;28;20277;-86
2022/05/10 02:12:19;;;;;;;8.65;7.97;;;17.60;74.30;;;;;;5089693;28;20192;-86
2022/05/10 02:15:20;;;;;;;9.65;8.82;;;17.60;74.40;;;;;;5076862;28;20199;-87
2022/05/10 02:18:04;;;;;;;9.35;8.55;;;17.60;73.60;;;;;;5080442;28;20190;-86
2022/05/10 02:20:49;;;;;;;9.15;8.13;;;17.10;75.80;;;;;;5080198;28;20213;-86
2022/05/10 02:23:42;;;;;;;8.38;7.78;;;17.10;76.50;;;;;;5085989;28;20200;-86
2022/05/10 02:26:11;;;;;;;8.07;7.47;;;17.10;76.40;;;;;;5088303;28;20212;-86
2022/05/10 02:28:50;;;;;;;9.88;8.90;;;17.20;75.70;;;;;;5083062;28;20189;-86
2022/05/10 02:34:33;;;;;;;9.73;8.52;;;17.30;76.20;;;;;;5087354;28;20196;-86
2022/05/10 02:36:59;;;;;;;9.70;8.77;;;17.30;75.70;;;;;;5089139;28;20223;-86
2022/05/10 02:39:25;;;;;;;9.65;8.88;;;17.30;75.80;;;;;;5078269;28;20576;-86
2022/05/10 02:41:52;;;;;;;8.93;8.33;;;17.40;75.90;;;;;;5093339;28;20227;-86
2022/05/10 02:44:18;;;;;;;10.43;9.25;;;17.40;75.80;;;;;;5092642;28;20186;-86
2022/05/10 02:46:43;;;;;;;9.83;9.13;;;17.50;75.40;;;;;;5098250;28;20198;-86
2022/05/10 02:49:09;;;;;;;9.02;8.40;;;17.40;74.80;;;;;;5093078;28;20236;-86
2022/05/10 02:51:35;;;;;;;8.73;8.02;;;17.40;74.90;;;;;;5094919;28;20191;-86
2022/05/10 02:54:00;;;;;;;9.23;8.52;;;17.40;74.80;;;;;;5090552;28;20199;-86
2022/05/10 02:56:28;;;;;;;9.20;8.20;;;17.40;74.80;;;;;;5090667;28;20215;-86
2022/05/10 02:59:02;;;;;;;8.77;8.07;;;17.40;73.90;;;;;;5099083;28;20192;-86
2022/05/10 03:01:33;;;;;;;8.73;8.05;;;17.30;73.70;;;;;;5100772;28;20988;-86
2022/05/10 03:03:59;;;;;;;8.57;7.88;;;17.30;73.30;;;;;;5093815;28;20186;-87
2022/05/10 03:06:28;;;;;;;8.80;8.10;;;17.30;73.20;;;;;;5087139;28;20218;-86
2022/05/10 03:08:55;;;;;;;9.27;8.35;;;17.30;73.10;;;;;;5096974;28;20213;-85
2022/05/10 03:11:22;;;;;;;8.50;7.82;;;17.30;73.20;;;;;;5093055;28;20197;-86
2022/05/10 03:13:48;;;;;;;8.82;8.13;;;17.30;73.50;;;;;;5096825;28;20293;-86
2022/05/10 03:16:16;;;;;;;11.10;8.48;;;17.30;73.50;;;;;;5087395;28;20275;-86
2022/05/10 03:18:42;;;;;;;9.65;7.85;;;17.30;72.90;;;;;;5098510;28;20281;-86
2022/05/10 03:21:08;;;;;;;9.35;8.43;;;17.30;72.80;;;;;;5095518;28;20220;-86
2022/05/10 03:23:35;;;;;;;8.68;7.97;;;17.20;73.10;;;;;;5096578;28;20268;-86
2022/05/10 03:26:01;;;;;;;8.80;7.93;;;17.20;72.70;;;;;;5089498;28;20563;-86
2022/05/10 03:28:27;;;;;;;8.57;7.60;;;17.20;72.70;;;;;;5084505;28;20276;-86
2022/05/10 03:30:54;;;;;;;8.75;7.95;;;17.10;73.10;;;;;;5095895;28;20194;-86
2022/05/10 03:33:19;;;;;;;8.88;8.07;;;17.00;72.80;;;;;;5085196;28;20185;-86
2022/05/10 03:35:45;;;;;;;8.73;8.03;;;17.00;72.80;;;;;;5096130;28;20716;-86
2022/05/10 03:38:11;;;;;;;8.57;7.83;;;16.90;73.60;;;;;;5097471;28;20204;-86
2022/05/10 03:40:36;;;;;;;8.83;8.13;;;16.90;74.00;;;;;;5085944;28;20202;-86
2022/05/10 03:43:02;;;;;;;8.93;8.23;;;16.70;74.60;;;;;;5080480;28;20199;-86
2022/05/10 03:45:28;;;;;;;8.97;8.23;;;16.70;75.20;;;;;;5082816;28;20219;-87
2022/05/10 03:47:54;;;;;;;9.57;8.87;;;16.60;76.20;;;;;;5073954;28;20189;-87
2022/05/10 03:50:23;;;;;;;9.03;8.33;;;16.60;76.90;;;;;;5076586;28;20194;-87
2022/05/10 03:52:50;;;;;;;9.30;8.60;;;16.60;77.00;;;;;;5072790;28;20197;-88
2022/05/10 03:55:20;;;;;;;9.10;8.30;;;16.50;76.30;;;;;;5071689;28;20242;-87
2022/05/10 03:57:46;;;;;;;8.73;7.90;;;16.50;75.30;;;;;;5074133;28;20839;-87
2022/05/10 04:00:17;;;;;;;8.53;7.93;;;16.40;76.40;;;;;;5079300;28;20202;-87
2022/05/10 04:02:44;;;;;;;8.80;8.10;;;16.40;77.10;;;;;;5073332;28;20205;-88
2022/05/10 04:05:10;;;;;;;9.20;8.30;;;16.30;77.00;;;;;;5082098;28;20229;-88
2022/05/10 04:07:36;;;;;;;12.77;8.57;;;16.20;76.10;;;;;;5085433;28;20207;-87
2022/05/10 04:10:03;;;;;;;9.20;8.40;;;16.00;79.00;;;;;;5096135;28;20206;-87
2022/05/10 04:12:29;;;;;;;9.70;8.90;;;16.00;79.30;;;;;;5106522;28;20188;-84
2022/05/10 04:14:56;;;;;;;10.47;8.30;;;16.10;78.10;;;;;;5087777;28;20188;-87
2022/05/10 04:17:22;;;;;;;8.60;7.90;;;16.30;77.60;;;;;;5079247;28;20178;-88
2022/05/10 04:19:48;;;;;;;9.17;8.47;;;16.40;76.90;;;;;;5072229;28;20212;-87
2022/05/10 04:22:15;;;;;;;9.67;8.70;;;16.40;76.80;;;;;;5080396;28;20562;-87
2022/05/10 04:24:40;;;;;;;9.27;8.47;;;16.50;76.60;;;;;;5086145;28;20197;-87
2022/05/10 04:27:06;;;;;;;8.17;7.57;;;16.50;76.50;;;;;;5069800;28;20210;-87
2022/05/10 04:29:32;;;;;;;9.33;8.60;;;16.50;76.30;;;;;;5088352;28;20202;-86
2022/05/10 04:31:58;;;;;;;8.90;8.00;;;16.60;75.60;;;;;;5082423;28;20202;-86
2022/05/10 04:34:24;;;;;;;8.73;8.00;;;16.60;75.20;;;;;;5080584;28;20201;-86
2022/05/10 04:36:49;;;;;;;8.47;7.90;;;16.60;75.00;;;;;;5077694;28;20303;-85
2022/05/10 04:39:15;;;;;;;13.27;9.17;;;16.60;75.20;;;;;;5087204;28;20202;-86
2022/05/10 04:41:46;;;;;;;9.37;8.43;;;16.70;75.10;;;;;;5092850;28;20218;-85
2022/05/10 04:44:12;;;;;;;9.17;8.43;;;16.60;74.50;;;;;;5096004;28;20187;-85
2022/05/10 04:46:40;;;;;;;8.83;8.13;;;16.70;75.30;;;;;;5086850;28;20202;-85
2022/05/10 04:49:09;;;;;;;8.30;7.70;;;16.60;75.10;;;;;;5084977;28;20181;-83
2022/05/10 04:51:35;;;;;;;8.10;7.50;;;16.80;75.20;;;;;;5088773;28;20180;-83
2022/05/10 04:54:01;;;;;;;8.87;8.03;;;16.70;75.10;;;;;;5088040;28;20181;-84
2022/05/10 04:56:27;;;;;;;9.77;8.60;;;16.50;76.10;;;;;;5095735;28;20860;-84
2022/05/10 04:58:54;;;;;;;8.97;8.37;;;16.40;77.50;;;;;;5079522;28;20183;-84
2022/05/10 05:01:26;;;;;;;8.47;7.87;;;16.30;78.40;;;;;;5087200;28;20238;-85
2022/05/10 05:03:55;;;;;;;8.67;7.93;;;16.40;78.20;;;;;;5080002;28;20264;-86
2022/05/10 05:06:22;;;;;;;8.73;8.13;;;16.60;77.80;;;;;;5081252;28;20545;-85
2022/05/10 05:08:47;;;;;;;9.30;8.60;;;16.70;77.30;;;;;;5087144;28;20181;-84
2022/05/10 05:11:13;;;;;;;9.73;8.83;;;16.80;77.70;;;;;;5087945;28;20193;-84
2022/05/10 05:13:39;;;;;;;9.50;8.63;;;16.80;76.90;;;;;;5085559;28;20222;-85
2022/05/10 05:16:06;;;;;;;10.27;9.47;;;16.90;77.30;;;;;;5087646;28;20236;-87
2022/05/10 05:18:32;;;;;;;9.00;8.30;;;17.00;77.00;;;;;;5089079;28;20188;-84
2022/05/10 05:20:58;;;;;;;10.15;8.93;;;17.00;77.10;;;;;;5087633;28;20209;-84
2022/05/10 05:23:24;;;;;;;10.13;9.20;;;17.00;77.80;;;;;;5089491;28;20195;-84
2022/05/10 05:25:52;;;;;;;10.40;9.57;;;17.10;78.30;;;;;;5092517;28;20206;-84
2022/05/10 05:28:18;;;;;;;9.73;9.02;;;17.30;77.50;;;;;;5088865;28;20273;-85
2022/05/10 05:30:45;;;;;;;10.18;9.38;;;17.40;77.60;;;;;;5085788;28;20250;-84
2022/05/10 05:33:11;;;;;;;11.52;10.73;;;17.40;77.40;;;;;;5085863;28;20189;-84
2022/05/10 05:35:37;;;;;;;16.13;12.77;;;17.50;77.80;;;;;;5085506;28;20206;-86
2022/05/10 05:38:03;;;;;;;12.02;11.13;;;17.30;79.60;;;;;;5094010;28;20186;-86
2022/05/10 05:40:29;;;;;;;12.98;12.07;;;17.30;78.80;;;;;;5083887;28;20185;-87
2022/05/10 05:42:56;;;;;;;12.27;11.38;;;17.40;78.50;;;;;;5081360;28;20215;-88
2022/05/10 05:45:24;;;;;;;12.93;11.82;;;17.50;77.70;;;;;;5092081;28;20276;-86
2022/05/10 05:47:51;;;;;;;13.73;12.38;;;17.40;77.60;;;;;;5094108;28;20198;-86
2022/05/10 05:50:19;;;;;;;13.55;12.45;;;17.40;79.00;;;;;;5095056;28;20186;-86
2022/05/10 05:52:46;;;;;;;13.85;12.77;;;17.50;78.40;;;;;;5092413;28;20182;-86
2022/05/10 05:55:12;;;;;;;12.27;11.18;;;17.70;79.40;;;;;;5086766;28;20214;-86
2022/05/10 05:57:38;;;;;;;13.02;11.90;;;17.70;77.70;;;;;;5088895;28;20620;-86
2022/05/10 06:00:07;;;;;;;13.45;12.27;;;17.90;77.30;;;;;;5085640;28;20252;-85
2022/05/10 06:02:32;;;;;;;13.80;12.52;;;17.90;76.30;;;;;;5090912;28;20198;-86
2022/05/10 06:04:58;;;;;;;13.05;11.95;;;17.70;76.90;;;;;;5090735;28;20397;-86
2022/05/10 06:07:24;;;;;;;13.77;12.75;;;17.60;78.30;;;;;;5089122;28;20182;-86
2022/05/10 06:09:49;;;;;;;12.80;11.80;;;17.80;77.30;;;;;;5087062;28;20250;-87
2022/05/10 06:12:19;;;;;;;13.82;12.60;;;17.70;78.80;;;;;;5088121;28;20198;-87
2022/05/10 06:14:46;;;;;;;13.38;12.27;;;17.50;79.20;;;;;;5073850;28;20190;-86
2022/05/10 06:17:13;;;;;;;15.57;14.07;;;17.60;79.30;;;;;;5084549;28;20364;-86
2022/05/10 06:19:40;;;;;;;15.38;13.98;;;17.60;79.10;;;;;;5078432;28;20189;-87
2022/05/10 06:22:08;;;;;;;14.93;13.60;;;17.50;81.40;;;;;;5088244;28;20220;-86
2022/05/10 06:24:34;;;;;;;14.20;13.00;;;17.50;82.00;;;;;;5077986;28;20189;-87
2022/05/10 06:27:01;;;;;;;14.10;13.03;;;17.30;82.80;;;;;;5081801;28;20224;-88
2022/05/10 06:29:26;;;;;;;14.47;13.27;;;17.30;83.20;;;;;;5080816;28;20196;-86
2022/05/10 06:31:52;;;;;;;14.50;13.20;;;17.20;83.40;;;;;;5091668;28;20551;-87
2022/05/10 06:34:18;;;;;;;14.27;13.07;;;17.30;83.10;;;;;;5104248;28;20200;-87
2022/05/10 06:36:44;;;;;;;14.30;13.10;;;17.40;84.70;;;;;;5098503;28;20234;-87
2022/05/10 06:39:10;;;;;;;15.03;13.53;;;17.40;83.30;;;;;;5108148;28;20183;-86
2022/05/10 06:41:36;;;;;;;13.90;12.70;;;17.40;85.30;;;;;;5084386;28;20218;-86
2022/05/10 06:44:03;;;;;;;15.47;14.13;;;17.50;85.50;;;;;;5086357;28;20251;-86
2022/05/10 06:46:32;;;;;;;14.53;13.13;;;17.70;83.80;;;;;;5081635;28;20197;-86
2022/05/10 06:48:58;;;;;;;15.35;14.10;;;18.00;81.50;;;;;;5085295;28;20489;-86
2022/05/10 06:51:24;;;;;;;13.83;12.73;;;18.10;79.10;;;;;;5087136;28;20204;-86
2022/05/10 06:53:50;;;;;;;13.83;12.47;;;18.20;79.30;;;;;;5072059;28;20194;-86
2022/05/10 06:56:16;;;;;;;13.60;12.53;;;18.20;79.50;;;;;;5077715;28;20223;-86
2022/05/10 06:58:42;;;;;;;13.75;12.55;;;18.10;79.20;;;;;;5074190;28;20618;-86
2022/05/10 07:01:11;;;;;;;13.93;12.93;;;18.30;80.50;;;;;;5089473;28;20287;-86
2022/05/10 07:03:40;;;;;;;12.80;11.57;;;18.30;78.40;;;;;;5083282;28;20192;-86
2022/05/10 07:06:08;;;;;;;13.93;12.73;;;18.40;77.50;;;;;;5075226;28;20239;-86
2022/05/10 07:08:34;;;;;;;13.80;12.53;;;18.40;78.40;;;;;;5082690;28;20196;-86
2022/05/10 07:11:00;;;;;;;13.60;12.50;;;18.40;78.70;;;;;;5093965;28;20245;-87
2022/05/10 07:13:28;;;;;;;13.87;12.67;;;18.30;77.30;;;;;;5086583;28;20239;-86
2022/05/10 07:15:54;;;;;;;14.07;12.97;;;18.50;75.80;;;;;;5097123;28;20233;-86
2022/05/10 07:18:20;;;;;;;13.60;12.60;;;18.60;75.80;;;;;;5094363;28;20189;-86
2022/05/10 07:20:47;;;;;;;14.25;13.07;;;18.70;77.60;;;;;;5091229;28;20174;-87
2022/05/10 07:23:14;;;;;;;13.95;12.85;;;18.80;76.60;;;;;;5091095;28;20179;-87
2022/05/10 07:25:40;;;;;;;14.15;12.95;;;18.80;77.80;;;;;;5084976;28;20296;-87
2022/05/10 07:28:06;;;;;;;14.45;13.25;;;18.90;76.40;;;;;;5087415;28;20241;-87
2022/05/10 07:30:33;;;;;;;14.73;13.23;;;18.80;77.60;;;;;;5082775;28;20194;-87
2022/05/10 07:32:59;;;;;;;15.43;14.02;;;18.90;76.80;;;;;;5074891;28;20190;-87
2022/05/10 07:38:15;;;;;;;14.02;12.93;;;19.20;76.80;;;;;;5069483;28;20217;-88
2022/05/10 07:40:42;;;;;;;14.20;13.00;;;19.30;75.20;;;;;;5084531;28;21135;-88
2022/05/10 07:43:10;;;;;;;15.35;13.93;;;19.30;76.80;;;;;;5078915;28;20479;-88
2022/05/10 07:45:36;;;;;;;15.00;13.57;;;19.50;76.40;;;;;;5080996;28;20214;-88
2022/05/10 07:48:03;;;;;;;14.80;13.32;;;19.60;72.80;;;;;;5078045;28;20199;-88
2022/05/10 07:50:28;;;;;;;14.02;12.68;;;19.70;72.10;;;;;;5089895;28;20193;-88
2022/05/10 07:52:54;;;;;;;14.15;12.93;;;19.70;74.10;;;;;;5079554;28;20202;-87
2022/05/10 07:55:20;;;;;;;13.90;12.70;;;19.80;72.90;;;;;;5080360;28;20210;-87
2022/05/10 07:57:45;;;;;;;14.43;13.13;;;19.80;73.60;;;;;;5085813;28;20183;-88
2022/05/10 08:00:13;;;;;;;14.13;13.02;;;19.90;73.00;;;;;;5083699;28;20749;-87
2022/05/10 08:02:42;;;;;;;14.75;13.45;;;19.90;74.00;;;;;;5071623;28;20219;-87
2022/05/10 08:05:16;;;;;;;13.82;12.60;;;20.00;72.40;;;;;;5072991;28;20231;-88
2022/05/10 08:07:42;;;;;;;14.77;13.57;;;20.10;73.20;;;;;;5075255;28;20195;-88
2022/05/10 08:10:08;;;;;;;14.52;13.35;;;20.10;73.70;;;;;;5074934;28;20187;-87
2022/05/10 08:12:34;;;;;;;15.02;13.88;;;20.20;73.60;;;;;;5085784;28;20201;-88
2022/05/10 08:14:59;;;;;;;14.68;13.27;;;20.20;74.10;;;;;;5075507;28;20189;-88
2022/05/10 08:17:25;;;;;;;14.20;12.85;;;20.30;72.00;;;;;;5075311;28;20652;-88
2022/05/10 08:19:51;;;;;;;13.63;12.35;;;20.40;72.10;;;;;;5068964;28;20190;-88
2022/05/10 08:22:17;;;;;;;14.27;12.95;;;20.50;71.30;;;;;;5081819;28;20211;-88
2022/05/10 08:24:43;;;;;;;14.07;13.07;;;20.70;71.40;;;;;;5082921;28;20240;-88
2022/05/10 08:27:09;;;;;;;13.82;12.57;;;20.90;68.90;;;;;;5070948;28;20203;-88
2022/05/10 08:29:34;;;;;;;12.85;11.75;;;21.10;68.60;;;;;;5072898;28;20210;-88
2022/05/10 08:32:00;;;;;;;13.52;12.55;;;21.30;67.60;;;;;;5081829;28;20187;-88
2022/05/10 08:34:27;;;;;;;14.25;12.95;;;21.20;66.40;;;;;;5078510;28;20229;-88
2022/05/10 08:36:53;;;;;;;12.80;11.80;;;21.20;68.40;;;;;;5087688;28;20204;-88
2022/05/10 08:39:19;;;;;;;12.93;11.82;;;21.40;66.50;;;;;;5077549;28;20238;-88
2022/05/10 08:41:54;;;;;;;13.82;12.73;;;21.40;66.60;;;;;;5079076;28;20306;-88
2022/05/10 08:44:24;;;;;;;12.20;11.23;;;21.60;67.50;;;;;;5071324;28;20639;-88
2022/05/10 08:46:57;;;;;;;12.43;11.32;;;21.50;67.80;;;;;;5071063;28;20221;-88
2022/05/10 08:49:32;;;;;;;12.93;11.20;;;21.80;65.60;;;;;;5085494;28;20187;-88
2022/05/10 08:51:58;;;;;;;12.50;11.30;;;22.00;68.40;;;;;;5085067;28;20771;-88
2022/05/10 08:54:26;;;;;;;11.85;10.63;;;22.10;62.70;;;;;;5073124;28;20195;-88
2022/05/10 08:57:00;;;;;;;15.10;11.48;;;22.40;61.80;;;;;;5075731;28;20240;-88
2022/05/10 08:59:45;;;;;;;13.10;11.77;;;22.60;62.90;;;;;;5080153;28;20686;-88
2022/05/10 09:02:17;;;;;;;11.90;10.85;;;22.60;63.00;;;;;;5074498;28;20211;-89
2022/05/10 09:04:53;;;;;;;11.80;10.90;;;22.80;61.50;;;;;;5093203;28;20184;-88
2022/05/10 09:07:46;;;;;;;11.73;10.82;;;23.00;62.50;;;;;;5095992;28;20207;-88
2022/05/10 09:10:17;;;;;;;11.73;10.70;;;23.10;58.60;;;;;;5092437;28;20180;-88
2022/05/10 09:13:05;;;;;;;12.30;11.40;;;23.10;61.60;;;;;;5073693;28;20195;-88
2022/05/10 09:15:44;;;;;;;11.23;10.35;;;23.40;58.10;;;;;;5078819;28;20218;-88
2022/05/10 09:18:40;;;;;;;10.90;10.00;;;23.30;56.90;;;;;;5076826;28;20214;-88
2022/05/10 09:21:09;;;;;;;10.90;10.05;;;23.30;59.20;;;;;;5073168;28;20227;-88
2022/05/10 09:23:59;;;;;;;11.40;10.25;;;23.40;58.30;;;;;;5071602;28;20709;-88
2022/05/10 09:26:34;;;;;;;10.85;10.05;;;23.60;57.80;;;;;;5079992;28;20295;-88
2022/05/10 09:29:19;;;;;;;10.80;9.85;;;23.60;57.70;;;;;;5077642;28;20592;-88
2022/05/10 09:34:48;;;;;;;11.43;10.40;;;24.00;57.30;;;;;;5080528;28;20244;-89
2022/05/10 09:37:25;;;;;;;11.35;10.55;;;24.30;57.60;;;;;;5089342;28;20247;-89
2022/05/10 09:39:57;;;;;;;11.80;10.63;;;24.30;57.60;;;;;;5084230;28;20187;-89
2022/05/10 09:42:27;;;;;;;12.23;11.32;;;24.40;55.90;;;;;;5069859;28;20215;-89
2022/05/10 09:45:16;;;;;;;11.07;10.02;;;24.40;57.20;;;;;;5077714;28;20187;-88
2022/05/10 09:47:55;;;;;;;11.13;9.98;;;24.60;54.10;;;;;;5085576;28;21177;-89
2022/05/10 09:50:28;;;;;;;11.82;10.95;;;24.70;55.00;;;;;;5090652;28;20186;-89
2022/05/10 09:53:20;;;;;;;11.00;10.10;;;24.70;54.30;;;;;;5096290;28;20528;-89
2022/05/10 09:56:00;;;;;;;10.90;9.90;;;24.80;53.40;;;;;;5087435;28;20226;-89
2022/05/10 09:58:31;;;;;;;11.05;10.18;;;24.80;55.50;;;;;;5098699;28;20209;-89
2022/05/10 10:00:59;;;;;;;11.02;9.90;;;25.00;56.30;;;;;;5093820;28;20197;-89
2022/05/10 10:03:32;;;;;;;10.40;9.48;;;25.30;53.60;;;;;;5099720;28;20179;-89
2022/05/10 10:06:22;;;;;;;10.95;9.93;;;25.40;52.70;;;;;;5086565;28;20298;-88
2022/05/10 10:08:55;;;;;;;12.07;10.18;;;25.30;51.40;;;;;;5088863;28;20187;-86
2022/05/10 10:11:21;;;;;;;12.02;10.40;;;25.40;50.70;;;;;;5084850;28;20179;-86
2022/05/10 10:13:57;;;;;;;10.63;9.82;;;25.40;50.10;;;;;;5079210;28;20194;-86
2022/05/10 10:16:35;;;;;;;10.95;10.05;;;25.50;51.90;;;;;;5085093;28;20211;-88
2022/05/10 10:19:11;;;;;;;11.10;9.63;;;25.30;51.70;;;;;;5086582;28;20217;-89
2022/05/10 10:21:52;;;;;;;10.82;9.88;;;25.30;52.00;;;;;;5078422;28;20254;-90
2022/05/10 10:24:33;;;;;;;10.57;9.77;;;25.60;50.30;;;;;;5090143;28;20183;-90
2022/05/10 10:27:06;;;;;;;10.82;9.68;;;25.70;50.10;;;;;;5086030;28;20250;-91
2022/05/10 10:29:50;;;;;;;9.95;9.00;;;25.90;50.80;;;;;;5085433;28;20232;-90
2022/05/10 10:32:19;;;;;;;9.48;8.70;;;26.10;48.90;;;;;;5082626;28;20243;-90
2022/05/10 10:35:15;;;;;;;9.02;8.25;;;26.20;48.40;;;;;;5076202;28;20187;-88
2022/05/10 10:37:46;;;;;;;9.93;9.02;;;26.50;45.90;;;;;;5086554;28;20188;-88
2022/05/10 10:40:27;;;;;;;10.10;9.10;;;26.60;45.70;;;;;;5091155;28;20245;-88
2022/05/10 10:43:02;;;;;;;9.57;8.77;;;26.70;48.40;;;;;;5081244;28;20222;-89
2022/05/10 10:45:47;;;;;;;11.55;8.80;;;26.60;49.10;;;;;;5080665;28;20206;-89
2022/05/10 10:48:19;;;;;;;9.70;8.93;;;27.00;48.00;;;;;;5087243;28;20186;-87
2022/05/10 10:50:44;;;;;;;9.93;9.23;;;27.00;47.50;;;;;;5086953;28;20184;-87
2022/05/10 10:53:12;;;;;;;9.55;8.88;;;27.00;48.00;;;;;;5065193;28;20191;-87
2022/05/10 10:55:44;;;;;;;8.95;8.15;;;27.00;45.30;;;;;;5083290;28;20204;-88
2022/05/10 10:58:47;;;;;;;9.43;8.05;;;27.60;43.80;;;;;;5083791;28;20687;-87
2022/05/10 11:01:12;;;;;;;8.20;7.38;;;27.70;42.40;;;;;;5091178;28;20211;-87
2022/05/10 11:04:03;;;;;;;8.15;7.47;;;27.70;41.60;;;;;;5080892;28;20602;-88
2022/05/10 11:06:36;;;;;;;8.45;7.75;;;28.10;40.40;;;;;;5103862;28;20231;-87
2022/05/10 11:09:10;;;;;;;8.68;7.72;;;28.10;40.70;;;;;;5104711;28;20179;-87
2022/05/10 11:12:00;;;;;;;9.68;7.38;;;28.10;40.70;;;;;;5083572;28;20192;-87
2022/05/10 11:14:40;;;;;;;19.40;8.07;;;28.10;41.50;;;;;;5088903;28;20643;-86
2022/05/10 11:17:09;;;;;;;10.35;8.07;;;28.10;40.20;;;;;;5089857;28;20206;-87
2022/05/10 11:20:11;;;;;;;9.07;7.65;;;28.40;39.70;;;;;;5090548;28;20183;-87
2022/05/10 11:23:00;;;;;;;9.30;8.60;;;28.30;38.70;;;;;;5095560;28;20201;-86
2022/05/10 11:25:28;;;;;;;9.25;7.90;;;28.40;39.50;;;;;;5105529;28;20191;-86
2022/05/10 11:28:01;;;;;;;8.73;7.82;;;28.20;40.50;;;;;;5103771;28;20195;-86
2022/05/10 11:31:04;;;;;;;8.00;7.40;;;27.90;41.20;;;;;;5103226;28;20175;-87
2022/05/10 11:33:56;;;;;;;8.63;7.90;;;27.60;40.90;;;;;;5089822;28;20186;-87
2022/05/10 11:36:37;;;;;;;8.07;7.38;;;27.60;41.10;;;;;;5090223;28;20202;-86
2022/05/10 11:39:34;;;;;;;8.18;7.47;;;27.80;39.30;;;;;;5089471;28;20187;-86
2022/05/10 11:42:20;;;;;;;8.02;7.53;;;27.90;39.20;;;;;;5088378;28;20571;-86
2022/05/10 11:45:21;;;;;;;12.85;7.85;;;28.10;41.30;;;;;;5088626;28;20358;-87
2022/05/10 11:48:00;;;;;;;9.18;7.97;;;28.80;39.20;;;;;;5090380;28;20170;-86
2022/05/10 11:50:39;;;;;;;10.65;7.82;;;28.90;40.30;;;;;;5090076;28;20190;-87
2022/05/10 11:53:06;;;;;;;8.20;7.60;;;28.70;37.60;;;;;;5088649;28;20200;-87
2022/05/10 11:56:07;;;;;;;7.65;6.97;;;28.60;37.40;;;;;;5090779;28;20212;-86
2022/05/10 11:58:35;;;;;;;7.38;6.90;;;28.80;37.60;;;;;;5091620;28;20660;-88
2022/05/10 12:01:10;;;;;;;8.20;7.55;;;29.20;36.50;;;;;;5088670;28;20187;-86
2022/05/10 12:03:36;;;;;;;7.80;7.30;;;29.40;36.50;;;;;;5089740;28;20191;-86
2022/05/10 12:06:23;;;;;;;7.25;6.78;;;29.20;36.80;;;;;;5088633;28;20418;-86
2022/05/10 12:08:50;;;;;;;6.65;6.15;;;29.00;37.30;;;;;;5089298;28;20190;-86
2022/05/10 12:11:27;;;;;;;8.43;6.75;;;29.10;35.00;;;;;;5090840;28;20828;-87
2022/05/10 12:22:19;;;;;;;7.47;6.78;;;29.60;35.60;;;;;;5088444;28;20229;-86
2022/05/10 12:24:47;;;;;;;7.28;6.78;;;29.20;35.00;;;;;;5089102;28;20210;-86
2022/05/10 12:27:12;;;;;;;7.63;7.05;;;29.20;35.60;;;;;;5086375;28;20227;-86
2022/05/10 12:29:38;;;;;;;7.18;6.57;;;29.50;35.20;;;;;;5086166;28;20186;-86
2022/05/10 12:32:29;;;;;;;7.60;6.93;;;29.90;34.80;;;;;;5087500;28;20183;-87
2022/05/10 12:34:57;;;;;;;7.15;6.53;;;30.10;36.20;;;;;;5086768;28;20195;-86
2022/05/10 12:37:24;;;;;;;6.82;6.28;;;29.70;34.40;;;;;;5089471;28;20208;-87
2022/05/10 12:39:53;;;;;;;6.72;6.15;;;29.60;33.80;;;;;;5089286;28;20234;-86
2022/05/10 12:42:24;;;;;;;8.95;7.00;;;29.30;34.30;;;;;;5088187;28;20226;-85
2022/05/10 12:45:05;;;;;;;6.97;6.47;;;29.40;34.80;;;;;;5088096;28;20175;-86
2022/05/10 12:47:43;;;;;;;7.00;6.50;;;29.40;34.70;;;;;;5085755;28;20186;-86
2022/05/10 12:50:59;;;;;;;6.45;5.90;;;29.40;34.70;;;;;;5088767;28;20351;-87
2022/05/10 12:53:47;;;;;;;7.50;6.97;;;29.70;35.20;;;;;;5060860;28;20186;-86
2022/05/10 12:56:28;;;;;;;7.43;6.63;;;29.60;35.30;;;;;;5081646;28;20206;-86
2022/05/10 12:59:02;;;;;;;7.07;6.35;;;29.50;34.80;;;;;;5085787;28;20269;-86
2022/05/10 13:01:34;;;;;;;8.23;7.20;;;29.80;35.00;;;;;;5088149;28;20202;-86
2022/05/10 13:04:12;;;;;;;7.57;7.00;;;30.10;35.20;;;;;;5085132;28;20549;-88
2022/05/10 13:07:06;;;;;;;7.78;6.97;;;30.30;34.40;;;;;;5086869;28;20262;-90
2022/05/10 13:10:06;;;;;;;7.25;6.53;;;30.40;33.80;;;;;;5087602;28;20182;-86
2022/05/10 13:12:43;;;;;;;7.18;6.68;;;30.30;33.70;;;;;;5083864;28;20686;-87
2022/05/10 13:15:13;;;;;;;7.10;6.40;;;30.50;34.40;;;;;;5090435;28;20206;-86
2022/05/10 13:17:44;;;;;;;7.53;6.90;;;30.50;33.90;;;;;;5088631;28;20178;-86
2022/05/10 13:20:12;;;;;;;8.00;7.30;;;30.60;33.10;;;;;;5089070;28;20856;-86
2022/05/10 13:22:46;;;;;;;7.45;6.95;;;30.20;35.50;;;;;;5090092;28;20793;-86